createdAt,value
2023-03-16T00:00:58.550Z,939.63
2023-03-16T00:01:58.830Z,939.63
2023-03-16T00:02:59.670Z,939.59
2023-03-16T00:04:00.223Z,939.57
2023-03-16T00:05:00.775Z,939.57
2023-03-16T00:06:01.032Z,939.56
2023-03-16T00:07:01.655Z,939.56
2023-03-16T00:08:01.907Z,939.62
2023-03-16T00:09:02.832Z,939.64
2023-03-16T00:10:03.738Z,939.59
2023-03-16T00:11:04.676Z,939.61
2023-03-16T00:12:05.702Z,939.57
2023-03-16T00:13:06.707Z,939.57
2023-03-16T00:14:06.961Z,939.58
2023-03-16T00:15:07.214Z,939.62
2023-03-16T00:16:07.551Z,939.65
2023-03-16T00:17:08.104Z,939.61
2023-03-16T00:18:08.403Z,939.6
2023-03-16T00:19:08.713Z,939.61
2023-03-16T00:20:09.508Z,939.57
2023-03-16T00:21:09.888Z,939.54
2023-03-16T00:22:10.223Z,939.53
2023-03-16T00:23:10.545Z,939.51
2023-03-16T00:24:11.265Z,939.51
2023-03-16T00:25:11.505Z,939.47
2023-03-16T00:26:12.149Z,939.47
2023-03-16T00:27:13.089Z,939.51
2023-03-16T00:28:13.308Z,939.51
2023-03-16T00:29:13.545Z,939.52
2023-03-16T00:30:14.506Z,939.47
2023-03-16T00:31:15.325Z,939.51
2023-03-16T00:32:15.658Z,939.53
2023-03-16T00:33:15.967Z,939.49
2023-03-16T00:34:16.189Z,939.43
2023-03-16T00:35:16.771Z,939.47
2023-03-16T00:36:16.993Z,939.47
2023-03-16T00:37:17.681Z,939.47
2023-03-16T00:38:18.388Z,939.44
2023-03-16T00:39:18.487Z,939.45
2023-03-16T00:40:19.459Z,939.47
2023-03-16T00:41:19.627Z,939.42
2023-03-16T00:42:20.392Z,939.44
2023-03-16T00:43:21.022Z,939.41
2023-03-16T00:44:21.938Z,939.39
2023-03-16T00:45:22.598Z,939.39
2023-03-16T00:46:22.918Z,939.38
2023-03-16T00:47:23.883Z,939.35
2023-03-16T00:48:24.477Z,939.36
2023-03-16T00:49:24.964Z,939.39
2023-03-16T00:50:25.652Z,939.36
2023-03-16T00:51:26.009Z,939.32
2023-03-16T00:52:26.374Z,939.34
2023-03-16T00:53:27.360Z,939.32
2023-03-16T00:54:28.418Z,939.32
2023-03-16T00:55:29.053Z,939.27
2023-03-16T00:56:29.978Z,939.3
2023-03-16T00:57:30.434Z,939.27
2023-03-16T00:58:31.012Z,939.28
2023-03-16T00:59:31.928Z,939.28
2023-03-16T01:00:32.415Z,939.29
2023-03-16T01:01:33.009Z,939.3
2023-03-16T01:02:33.527Z,939.26
2023-03-16T01:03:34.600Z,939.27
2023-03-16T01:04:34.842Z,939.19
2023-03-16T01:05:35.580Z,939.22
2023-03-16T01:06:38.812Z,939.22
2023-03-16T01:07:36.933Z,939.24
2023-03-16T01:08:37.848Z,939.23
2023-03-16T01:09:38.062Z,939.22
2023-03-16T01:10:38.726Z,939.2
2023-03-16T01:11:39.673Z,939.22
2023-03-16T01:12:39.957Z,939.2
2023-03-16T01:13:40.277Z,939.16
2023-03-16T01:14:40.479Z,939.19
2023-03-16T01:15:41.278Z,939.21
2023-03-16T01:16:41.929Z,939.17
2023-03-16T01:17:42.143Z,939.23
2023-03-16T01:18:42.373Z,939.21
2023-03-16T01:19:42.916Z,939.13
2023-03-16T01:20:43.186Z,939.13
2023-03-16T01:21:43.410Z,939.12
2023-03-16T01:22:44.052Z,939.12
2023-03-16T01:23:44.397Z,939.14
2023-03-16T01:24:44.954Z,939.13
2023-03-16T01:25:45.874Z,939.14
2023-03-16T01:26:46.561Z,939.11
2023-03-16T01:27:46.820Z,939.13
2023-03-16T01:28:47.491Z,939.13
2023-03-16T01:29:48.161Z,939.08
2023-03-16T01:30:48.408Z,939.07
2023-03-16T01:31:48.724Z,939.07
2023-03-16T01:32:48.885Z,939.03
2023-03-16T01:33:49.602Z,939.02
2023-03-16T01:34:49.833Z,939.05
2023-03-16T01:35:50.440Z,939.09
2023-03-16T01:36:51.300Z,939.07
2023-03-16T01:37:52.213Z,939.05
2023-03-16T01:38:52.844Z,939.07
2023-03-16T01:39:53.199Z,939.04
2023-03-16T01:40:54.124Z,939.05
2023-03-16T01:41:54.338Z,939.1
2023-03-16T01:42:55.405Z,939.05
2023-03-16T01:43:56.335Z,939.03
2023-03-16T01:44:56.712Z,939.02
2023-03-16T01:45:57.504Z,939.02
2023-03-16T01:46:58.032Z,939
2023-03-16T01:47:58.746Z,938.99
2023-03-16T01:48:59.341Z,938.92
2023-03-16T01:49:59.963Z,938.94
2023-03-16T01:51:00.244Z,938.94
2023-03-16T01:52:00.521Z,938.92
2023-03-16T01:53:00.934Z,938.89
2023-03-16T01:54:01.575Z,938.87
2023-03-16T01:55:01.790Z,938.96
2023-03-16T01:56:02.724Z,938.95
2023-03-16T01:57:03.658Z,938.94
2023-03-16T01:58:04.631Z,938.96
2023-03-16T01:59:05.287Z,938.96
2023-03-16T02:00:05.539Z,938.97
2023-03-16T02:01:06.189Z,938.97
2023-03-16T02:02:06.835Z,938.94
2023-03-16T02:03:07.750Z,938.96
2023-03-16T02:04:08.776Z,938.91
2023-03-16T02:05:09.373Z,938.95
2023-03-16T02:06:10.355Z,938.9
2023-03-16T02:07:11.350Z,938.89
2023-03-16T02:08:11.604Z,938.88
2023-03-16T02:09:11.815Z,938.9
2023-03-16T02:10:12.450Z,938.87
2023-03-16T02:11:13.418Z,938.9
2023-03-16T02:12:14.375Z,938.86
2023-03-16T02:13:14.991Z,938.87
2023-03-16T02:14:15.486Z,938.88
2023-03-16T02:15:15.780Z,938.88
2023-03-16T02:16:15.969Z,938.86
2023-03-16T02:17:16.335Z,938.88
2023-03-16T02:18:16.996Z,938.84
2023-03-16T02:19:17.345Z,938.9
2023-03-16T02:20:18.301Z,938.89
2023-03-16T02:21:18.496Z,938.86
2023-03-16T02:22:19.216Z,938.83
2023-03-16T02:23:19.569Z,938.83
2023-03-16T02:24:19.989Z,938.8
2023-03-16T02:25:19.893Z,938.84
2023-03-16T02:26:20.390Z,938.82
2023-03-16T02:27:21.326Z,938.83
2023-03-16T02:28:21.814Z,938.77
2023-03-16T02:29:22.307Z,938.82
2023-03-16T02:30:22.930Z,938.78
2023-03-16T02:31:23.548Z,938.77
2023-03-16T02:32:23.892Z,938.79
2023-03-16T02:33:24.251Z,938.76
2023-03-16T02:34:24.484Z,938.78
2023-03-16T02:35:24.725Z,938.82
2023-03-16T02:36:25.110Z,938.8
2023-03-16T02:37:25.489Z,938.79
2023-03-16T02:38:25.455Z,938.76
2023-03-16T02:39:26.129Z,938.75
2023-03-16T02:40:26.666Z,938.73
2023-03-16T02:41:27.121Z,938.73
2023-03-16T02:42:28.064Z,938.76
2023-03-16T02:43:28.271Z,938.75
2023-03-16T02:44:29.250Z,938.76
2023-03-16T02:45:29.489Z,938.76
2023-03-16T02:46:29.819Z,938.75
2023-03-16T02:47:30.488Z,938.79
2023-03-16T02:48:31.034Z,938.74
2023-03-16T02:49:31.444Z,938.76
2023-03-16T02:50:31.355Z,938.76
2023-03-16T02:51:31.626Z,938.79
2023-03-16T02:52:32.538Z,938.72
2023-03-16T02:53:33.545Z,938.77
2023-03-16T02:54:34.493Z,938.76
2023-03-16T02:55:35.446Z,938.81
2023-03-16T02:56:35.936Z,938.83
2023-03-16T02:57:36.453Z,938.85
2023-03-16T02:58:36.947Z,938.87
2023-03-16T02:59:37.432Z,938.89
2023-03-16T03:00:38.360Z,938.89
2023-03-16T03:01:38.877Z,938.91
2023-03-16T03:02:39.080Z,938.88
2023-03-16T03:03:39.881Z,938.9
2023-03-16T03:04:40.178Z,938.94
2023-03-16T03:05:41.136Z,938.95
2023-03-16T03:06:41.411Z,939.01
2023-03-16T03:07:42.365Z,938.94
2023-03-16T03:08:42.850Z,938.98
2023-03-16T03:09:43.057Z,938.97
2023-03-16T03:10:43.545Z,938.91
2023-03-16T03:11:43.860Z,938.91
2023-03-16T03:12:44.805Z,938.89
2023-03-16T03:13:45.415Z,938.9
2023-03-16T03:14:45.643Z,938.89
2023-03-16T03:15:45.864Z,938.89
2023-03-16T03:16:46.153Z,938.87
2023-03-16T03:17:46.715Z,938.91
2023-03-16T03:18:47.253Z,938.89
2023-03-16T03:19:47.499Z,938.97
2023-03-16T03:20:48.143Z,938.92
2023-03-16T03:21:48.474Z,938.91
2023-03-16T03:22:49.113Z,938.89
2023-03-16T03:23:49.744Z,938.88
2023-03-16T03:24:50.398Z,938.83
2023-03-16T03:25:50.605Z,938.87
2023-03-16T03:26:50.897Z,938.83
2023-03-16T03:27:51.975Z,938.84
2023-03-16T03:28:52.342Z,938.86
2023-03-16T03:29:53.254Z,938.82
2023-03-16T03:30:53.810Z,938.84
2023-03-16T03:31:54.112Z,938.83
2023-03-16T03:32:55.239Z,938.9
2023-03-16T03:33:55.843Z,938.91
2023-03-16T03:34:56.771Z,938.88
2023-03-16T03:35:57.524Z,938.89
2023-03-16T03:36:58.233Z,938.85
2023-03-16T03:37:58.458Z,938.88
2023-03-16T03:38:58.953Z,938.85
2023-03-16T03:39:59.262Z,938.87
2023-03-16T03:40:59.550Z,938.83
2023-03-16T03:42:00.188Z,938.85
2023-03-16T03:43:00.373Z,938.81
2023-03-16T03:44:01.133Z,938.81
2023-03-16T03:45:01.685Z,938.81
2023-03-16T03:46:02.209Z,938.81
2023-03-16T03:47:02.969Z,938.77
2023-03-16T03:48:03.842Z,938.74
2023-03-16T03:49:04.799Z,938.78
2023-03-16T03:50:05.166Z,938.75
2023-03-16T03:51:05.704Z,938.76
2023-03-16T03:52:06.258Z,938.73
2023-03-16T03:53:06.484Z,938.74
2023-03-16T03:54:07.481Z,938.77
2023-03-16T03:55:08.113Z,938.77
2023-03-16T03:56:08.613Z,938.78
2023-03-16T03:57:09.523Z,938.72
2023-03-16T03:58:10.081Z,938.76
2023-03-16T03:59:10.993Z,938.74
2023-03-16T04:00:11.736Z,938.73
2023-03-16T04:01:12.565Z,938.7
2023-03-16T04:02:12.906Z,938.71
2023-03-16T04:03:13.338Z,938.73
2023-03-16T04:04:13.407Z,938.75
2023-03-16T04:05:14.459Z,938.67
2023-03-16T04:06:15.380Z,938.69
2023-03-16T04:07:15.956Z,938.65
2023-03-16T04:08:16.454Z,938.68
2023-03-16T04:09:16.803Z,938.59
2023-03-16T04:10:17.721Z,938.65
2023-03-16T04:11:18.010Z,938.64
2023-03-16T04:12:18.919Z,938.64
2023-03-16T04:13:19.332Z,938.63
2023-03-16T04:14:19.619Z,938.64
2023-03-16T04:15:19.868Z,938.6
2023-03-16T04:16:20.552Z,938.64
2023-03-16T04:17:20.961Z,938.55
2023-03-16T04:18:21.455Z,938.58
2023-03-16T04:19:22.116Z,938.58
2023-03-16T04:20:22.351Z,938.57
2023-03-16T04:21:23.305Z,938.57
2023-03-16T04:22:23.577Z,938.57
2023-03-16T04:23:24.194Z,938.58
2023-03-16T04:24:24.524Z,938.53
2023-03-16T04:25:24.728Z,938.57
2023-03-16T04:26:25.703Z,938.52
2023-03-16T04:27:26.625Z,938.55
2023-03-16T04:28:26.824Z,938.51
2023-03-16T04:29:27.491Z,938.56
2023-03-16T04:30:27.860Z,938.54
2023-03-16T04:31:28.408Z,938.54
2023-03-16T04:32:29.362Z,938.59
2023-03-16T04:33:29.804Z,938.54
2023-03-16T04:34:30.265Z,938.53
2023-03-16T04:35:30.828Z,938.53
2023-03-16T04:36:31.475Z,938.58
2023-03-16T04:37:32.040Z,938.53
2023-03-16T04:38:32.528Z,938.58
2023-03-16T04:39:33.148Z,938.55
2023-03-16T04:40:34.223Z,938.53
2023-03-16T04:41:34.456Z,938.51
2023-03-16T04:42:35.394Z,938.54
2023-03-16T04:43:35.605Z,938.51
2023-03-16T04:44:35.917Z,938.55
2023-03-16T04:45:36.447Z,938.54
2023-03-16T04:46:36.887Z,938.56
2023-03-16T04:47:37.330Z,938.58
2023-03-16T04:48:38.257Z,938.59
2023-03-16T04:49:38.499Z,938.58
2023-03-16T04:50:39.029Z,938.57
2023-03-16T04:51:39.955Z,938.6
2023-03-16T04:52:40.216Z,938.58
2023-03-16T04:53:40.430Z,938.53
2023-03-16T04:54:41.416Z,938.58
2023-03-16T04:55:41.609Z,938.56
2023-03-16T04:56:42.540Z,938.56
2023-03-16T04:57:43.170Z,938.56
2023-03-16T04:58:44.111Z,938.55
2023-03-16T04:59:45.054Z,938.56
2023-03-16T05:00:45.970Z,938.56
2023-03-16T05:01:46.980Z,938.55
2023-03-16T05:02:47.547Z,938.58
2023-03-16T05:03:48.454Z,938.55
2023-03-16T05:04:49.224Z,938.52
2023-03-16T05:05:49.762Z,938.5
2023-03-16T05:06:50.823Z,938.5
2023-03-16T05:07:51.115Z,938.45
2023-03-16T05:08:51.342Z,938.44
2023-03-16T05:09:52.277Z,938.4
2023-03-16T05:10:53.226Z,938.4
2023-03-16T05:11:53.887Z,938.3
2023-03-16T05:12:54.808Z,938.36
2023-03-16T05:13:55.467Z,938.37
2023-03-16T05:14:56.195Z,938.35
2023-03-16T05:15:56.719Z,938.39
2023-03-16T05:16:57.361Z,938.41
2023-03-16T05:17:57.979Z,938.34
2023-03-16T05:18:58.180Z,938.39
2023-03-16T05:19:58.410Z,938.35
2023-03-16T05:20:58.996Z,938.31
2023-03-16T05:21:59.656Z,938.33
2023-03-16T05:23:00.220Z,938.37
2023-03-16T05:24:00.405Z,938.29
2023-03-16T05:25:00.767Z,938.32
2023-03-16T05:26:01.210Z,938.35
2023-03-16T05:27:01.405Z,938.35
2023-03-16T05:28:02.342Z,938.35
2023-03-16T05:29:02.429Z,938.32
2023-03-16T05:30:02.629Z,938.32
2023-03-16T05:31:02.884Z,938.28
2023-03-16T05:32:03.413Z,938.29
2023-03-16T05:33:04.099Z,938.3
2023-03-16T05:34:04.299Z,938.36
2023-03-16T05:35:05.349Z,938.33
2023-03-16T05:36:05.992Z,938.33
2023-03-16T05:37:06.324Z,938.33
2023-03-16T05:38:07.318Z,938.3
2023-03-16T05:39:07.542Z,938.28
2023-03-16T05:40:08.035Z,938.31
2023-03-16T05:41:08.955Z,938.25
2023-03-16T05:42:09.303Z,938.26
2023-03-16T05:43:10.370Z,938.27
2023-03-16T05:44:10.590Z,938.27
2023-03-16T05:45:11.401Z,938.27
2023-03-16T05:46:11.823Z,938.23
2023-03-16T05:47:12.534Z,938.27
2023-03-16T05:48:12.795Z,938.28
2023-03-16T05:49:13.172Z,938.3
2023-03-16T05:50:14.129Z,938.29
2023-03-16T05:51:14.737Z,938.29
2023-03-16T05:52:15.681Z,938.32
2023-03-16T05:53:15.954Z,938.34
2023-03-16T05:54:16.882Z,938.32
2023-03-16T05:55:17.628Z,938.3
2023-03-16T05:56:18.536Z,938.3
2023-03-16T05:57:19.041Z,938.29
2023-03-16T05:58:19.246Z,938.31
2023-03-16T05:59:20.209Z,938.27
2023-03-16T06:00:21.128Z,938.31
2023-03-16T06:01:22.091Z,938.32
2023-03-16T06:02:22.352Z,938.3
2023-03-16T06:03:23.211Z,938.31
2023-03-16T06:04:23.384Z,938.31
2023-03-16T06:05:23.990Z,938.34
2023-03-16T06:06:24.320Z,938.32
2023-03-16T06:07:24.589Z,938.32
2023-03-16T06:08:24.865Z,938.35
2023-03-16T06:09:25.509Z,938.34
2023-03-16T06:10:25.753Z,938.32
2023-03-16T06:11:25.943Z,938.35
2023-03-16T06:12:26.871Z,938.36
2023-03-16T06:13:27.075Z,938.34
2023-03-16T06:14:27.287Z,938.36
2023-03-16T06:15:28.006Z,938.38
2023-03-16T06:16:29.031Z,938.38
2023-03-16T06:17:29.501Z,938.35
2023-03-16T06:18:30.425Z,938.38
2023-03-16T06:19:30.639Z,938.37
2023-03-16T06:20:31.327Z,938.39
2023-03-16T06:21:31.623Z,938.35
2023-03-16T06:22:31.800Z,938.35
2023-03-16T06:23:32.152Z,938.33
2023-03-16T06:24:32.839Z,938.29
2023-03-16T06:25:33.337Z,938.29
2023-03-16T06:26:33.498Z,938.3
2023-03-16T06:27:33.855Z,938.31
2023-03-16T06:28:34.770Z,938.31
2023-03-16T06:29:35.068Z,938.32
2023-03-16T06:30:35.750Z,938.3
2023-03-16T06:31:36.740Z,938.28
2023-03-16T06:32:37.642Z,938.3
2023-03-16T06:33:37.894Z,938.3
2023-03-16T06:34:38.808Z,938.3
2023-03-16T06:35:39.306Z,938.35
2023-03-16T06:36:40.058Z,938.34
2023-03-16T06:37:40.990Z,938.34
2023-03-16T06:38:41.291Z,938.33
2023-03-16T06:39:41.660Z,938.39
2023-03-16T06:40:42.152Z,938.4
2023-03-16T06:41:43.114Z,938.36
2023-03-16T06:42:46.301Z,938.39
2023-03-16T06:43:44.573Z,938.33
2023-03-16T06:44:45.212Z,938.3
2023-03-16T06:45:45.588Z,938.34
2023-03-16T06:46:45.849Z,938.3
2023-03-16T06:47:46.068Z,938.28
2023-03-16T06:48:46.408Z,938.32
2023-03-16T06:49:47.362Z,938.3
2023-03-16T06:50:47.646Z,938.3
2023-03-16T06:51:48.174Z,938.33
2023-03-16T06:52:49.116Z,938.32
2023-03-16T06:53:49.387Z,938.34
2023-03-16T06:54:49.612Z,938.35
2023-03-16T06:55:50.638Z,938.34
2023-03-16T06:56:50.861Z,938.34
2023-03-16T06:57:51.576Z,938.35
2023-03-16T06:58:51.796Z,938.38
2023-03-16T06:59:52.007Z,938.43
2023-03-16T07:00:52.452Z,938.48
2023-03-16T07:01:53.042Z,938.54
2023-03-16T07:02:53.287Z,938.6
2023-03-16T07:03:54.342Z,938.58
2023-03-16T07:04:55.078Z,938.62
2023-03-16T07:05:56.143Z,938.63
2023-03-16T07:06:57.143Z,938.64
2023-03-16T07:07:58.098Z,938.62
2023-03-16T07:08:58.407Z,938.62
2023-03-16T07:09:58.753Z,938.59
2023-03-16T07:10:59.697Z,938.58
2023-03-16T07:12:00.197Z,938.62
2023-03-16T07:13:00.733Z,938.62
2023-03-16T07:14:01.381Z,938.61
2023-03-16T07:15:01.625Z,938.61
2023-03-16T07:16:02.412Z,938.6
2023-03-16T07:17:02.681Z,938.62
2023-03-16T07:18:02.949Z,938.63
2023-03-16T07:19:03.186Z,938.65
2023-03-16T07:20:03.386Z,938.68
2023-03-16T07:21:03.583Z,938.71
2023-03-16T07:22:03.898Z,938.7
2023-03-16T07:23:04.510Z,938.78
2023-03-16T07:24:04.996Z,938.82
2023-03-16T07:25:05.214Z,938.8
2023-03-16T07:26:06.281Z,938.75
2023-03-16T07:27:06.531Z,938.81
2023-03-16T07:28:07.480Z,938.73
2023-03-16T07:29:08.166Z,938.71
2023-03-16T07:30:09.090Z,938.75
2023-03-16T07:31:09.722Z,938.73
2023-03-16T07:32:10.221Z,938.72
2023-03-16T07:33:10.578Z,938.77
2023-03-16T07:34:11.156Z,938.73
2023-03-16T07:35:12.114Z,938.73
2023-03-16T07:36:12.880Z,938.72
2023-03-16T07:37:13.579Z,938.76
2023-03-16T07:38:14.216Z,938.77
2023-03-16T07:39:14.533Z,938.85
2023-03-16T07:40:14.817Z,938.85
2023-03-16T07:41:15.152Z,938.9
2023-03-16T07:42:16.178Z,938.89
2023-03-16T07:43:17.154Z,938.91
2023-03-16T07:44:17.460Z,938.88
2023-03-16T07:45:18.468Z,938.92
2023-03-16T07:46:19.209Z,938.9
2023-03-16T07:47:20.214Z,938.95
2023-03-16T07:48:20.457Z,938.95
2023-03-16T07:49:21.126Z,938.96
2023-03-16T07:50:21.353Z,938.94
2023-03-16T07:51:22.201Z,938.96
2023-03-16T07:52:22.496Z,938.92
2023-03-16T07:53:23.172Z,938.86
2023-03-16T07:54:24.223Z,938.91
2023-03-16T07:55:24.443Z,938.83
2023-03-16T07:56:24.744Z,938.83
2023-03-16T07:57:24.998Z,938.86
2023-03-16T07:58:25.552Z,938.79
2023-03-16T07:59:25.800Z,938.79
2023-03-16T08:00:27.127Z,938.76
2023-03-16T08:01:27.703Z,938.72
2023-03-16T08:02:27.984Z,938.76
2023-03-16T08:03:28.994Z,938.73
2023-03-16T08:04:29.641Z,938.68
2023-03-16T08:05:30.278Z,938.69
2023-03-16T08:06:31.357Z,938.69
2023-03-16T08:07:31.901Z,938.68
2023-03-16T08:08:32.837Z,938.69
2023-03-16T08:09:33.418Z,938.73
2023-03-16T08:10:34.367Z,938.74
2023-03-16T08:11:34.895Z,938.75
2023-03-16T08:12:35.343Z,938.77
2023-03-16T08:13:36.313Z,938.85
2023-03-16T08:14:36.969Z,938.81
2023-03-16T08:15:37.542Z,938.78
2023-03-16T08:16:38.247Z,938.84
2023-03-16T08:17:39.211Z,938.83
2023-03-16T08:18:40.151Z,938.9
2023-03-16T08:19:40.450Z,938.93
2023-03-16T08:20:41.421Z,938.9
2023-03-16T08:21:57.602Z,938.88
2023-03-16T08:22:42.617Z,938.92
2023-03-16T08:23:43.126Z,938.92
2023-03-16T08:24:43.420Z,938.92
2023-03-16T08:25:43.969Z,938.96
2023-03-16T08:26:44.336Z,939.01
2023-03-16T08:27:44.610Z,939.01
2023-03-16T08:28:44.851Z,939.04
2023-03-16T08:29:45.207Z,939.01
2023-03-16T08:30:46.166Z,939
2023-03-16T08:31:46.386Z,938.96
2023-03-16T08:32:46.730Z,938.92
2023-03-16T08:33:47.090Z,938.94
2023-03-16T08:34:48.036Z,938.93
2023-03-16T08:35:48.595Z,938.93
2023-03-16T08:36:49.014Z,938.95
2023-03-16T08:37:49.274Z,938.97
2023-03-16T08:39:04.062Z,938.96
2023-03-16T08:39:50.074Z,938.99
2023-03-16T08:40:50.296Z,939
2023-03-16T08:41:51.224Z,938.97
2023-03-16T08:42:51.800Z,938.94
2023-03-16T08:43:52.490Z,938.92
2023-03-16T08:44:52.702Z,938.88
2023-03-16T08:45:53.210Z,938.84
2023-03-16T08:46:53.782Z,938.8
2023-03-16T08:47:54.100Z,938.83
2023-03-16T08:48:54.344Z,938.82
2023-03-16T08:49:54.666Z,938.87
2023-03-16T08:50:55.283Z,938.84
2023-03-16T08:51:55.857Z,938.79
2023-03-16T08:52:56.910Z,938.79
2023-03-16T08:53:57.207Z,938.81
2023-03-16T08:55:03.238Z,938.77
2023-03-16T08:55:57.849Z,938.8
2023-03-16T08:56:58.698Z,938.81
2023-03-16T08:57:58.975Z,938.82
2023-03-16T08:58:59.199Z,938.82
2023-03-16T09:00:00.284Z,938.77
2023-03-16T09:01:02.146Z,938.85
2023-03-16T09:02:01.475Z,938.83
2023-03-16T09:03:01.908Z,938.84
2023-03-16T09:04:02.703Z,938.84
2023-03-16T09:05:03.438Z,938.84
2023-03-16T09:06:03.971Z,938.88
2023-03-16T09:07:10.258Z,938.9
2023-03-16T09:08:11.223Z,938.94
2023-03-16T09:09:12.274Z,938.93
2023-03-16T09:10:12.609Z,938.92
2023-03-16T09:11:13.348Z,938.95
2023-03-16T09:12:14.286Z,938.99
2023-03-16T09:13:15.241Z,938.97
2023-03-16T09:14:15.457Z,938.92
2023-03-16T09:15:15.585Z,938.92
2023-03-16T09:16:16.049Z,938.93
2023-03-16T09:17:16.342Z,938.94
2023-03-16T09:18:17.443Z,938.88
2023-03-16T09:19:18.405Z,938.91
2023-03-16T09:20:22.984Z,938.85
2023-03-16T09:21:19.602Z,938.89
2023-03-16T09:22:20.023Z,938.92
2023-03-16T09:23:20.300Z,938.88
2023-03-16T09:24:20.528Z,938.86
2023-03-16T09:25:20.990Z,938.87
2023-03-16T09:26:21.705Z,938.85
2023-03-16T09:27:22.083Z,938.81
2023-03-16T09:28:23.209Z,938.8
2023-03-16T09:29:23.884Z,938.82
2023-03-16T09:30:24.910Z,938.79
2023-03-16T09:31:25.474Z,938.81
2023-03-16T09:32:25.727Z,938.83
2023-03-16T09:33:26.572Z,938.82
2023-03-16T09:34:27.735Z,938.85
2023-03-16T09:35:28.131Z,938.82
2023-03-16T09:36:28.772Z,938.79
2023-03-16T09:37:35.580Z,938.83
2023-03-16T09:38:29.948Z,938.81
2023-03-16T09:39:30.248Z,938.77
2023-03-16T09:40:30.463Z,938.79
2023-03-16T09:41:31.311Z,938.77
2023-03-16T09:42:31.820Z,938.81
2023-03-16T09:43:32.085Z,938.82
2023-03-16T09:44:32.777Z,938.81
2023-03-16T09:45:33.146Z,938.83
2023-03-16T09:46:35.047Z,938.88
2023-03-16T09:47:34.132Z,938.87
2023-03-16T09:48:34.381Z,938.85
2023-03-16T09:49:34.640Z,938.9
2023-03-16T09:50:47.547Z,938.9
2023-03-16T09:51:35.602Z,938.88
2023-03-16T09:52:36.168Z,938.83
2023-03-16T09:53:36.678Z,938.83
2023-03-16T09:54:36.953Z,938.86
2023-03-16T09:55:37.184Z,938.85
2023-03-16T09:56:38.187Z,938.87
2023-03-16T09:57:39.238Z,938.82
2023-03-16T09:58:39.725Z,938.87
2023-03-16T09:59:39.967Z,938.84
2023-03-16T10:00:40.633Z,938.85
2023-03-16T10:01:41.489Z,938.84
2023-03-16T10:02:42.463Z,938.85
2023-03-16T10:03:43.012Z,938.87
2023-03-16T10:04:44.960Z,938.83
2023-03-16T10:05:44.274Z,938.81
2023-03-16T10:06:45.365Z,938.81
2023-03-16T10:07:46.155Z,938.8
2023-03-16T10:08:47.125Z,938.83
2023-03-16T10:09:47.372Z,938.83
2023-03-16T10:10:48.189Z,938.8
2023-03-16T10:11:48.545Z,938.82
2023-03-16T10:12:48.876Z,938.84
2023-03-16T10:13:49.340Z,938.79
2023-03-16T10:14:49.620Z,938.8
2023-03-16T10:15:49.856Z,938.79
2023-03-16T10:16:50.947Z,938.84
2023-03-16T10:17:51.264Z,938.83
2023-03-16T10:18:51.804Z,938.84
2023-03-16T10:19:52.351Z,938.82
2023-03-16T10:20:53.369Z,938.84
2023-03-16T10:21:54.360Z,938.84
2023-03-16T10:22:54.932Z,938.8
2023-03-16T10:23:55.176Z,938.79
2023-03-16T10:24:56.141Z,938.82
2023-03-16T10:25:57.129Z,938.82
2023-03-16T10:26:57.499Z,938.8
2023-03-16T10:27:58.059Z,938.81
2023-03-16T10:28:58.604Z,938.81
2023-03-16T10:29:58.858Z,938.84
2023-03-16T10:30:59.089Z,938.81
2023-03-16T10:31:59.441Z,938.78
2023-03-16T10:32:59.640Z,938.84
2023-03-16T10:34:00.503Z,938.81
2023-03-16T10:35:01.216Z,938.82
2023-03-16T10:36:02.199Z,938.81
2023-03-16T10:37:02.640Z,938.79
2023-03-16T10:38:03.769Z,938.8
2023-03-16T10:39:04.096Z,938.81
2023-03-16T10:40:04.683Z,938.77
2023-03-16T10:41:05.030Z,938.71
2023-03-16T10:42:05.426Z,938.71
2023-03-16T10:43:05.962Z,938.63
2023-03-16T10:44:06.738Z,938.66
2023-03-16T10:45:07.801Z,938.7
2023-03-16T10:46:08.042Z,938.7
2023-03-16T10:47:08.455Z,938.69
2023-03-16T10:48:08.534Z,938.66
2023-03-16T10:49:09.086Z,938.67
2023-03-16T10:50:09.770Z,938.59
2023-03-16T10:51:09.971Z,938.61
2023-03-16T10:52:10.967Z,938.61
2023-03-16T10:53:11.295Z,938.57
2023-03-16T10:54:12.103Z,938.56
2023-03-16T10:55:13.135Z,938.54
2023-03-16T10:56:13.628Z,938.54
2023-03-16T10:57:14.248Z,938.54
2023-03-16T10:58:14.360Z,938.49
2023-03-16T10:59:14.558Z,938.49
2023-03-16T11:00:14.828Z,938.45
2023-03-16T11:01:15.895Z,938.42
2023-03-16T11:02:16.840Z,938.43
2023-03-16T11:03:17.109Z,938.42
2023-03-16T11:04:18.160Z,938.42
2023-03-16T11:05:18.693Z,938.38
2023-03-16T11:06:19.537Z,938.4
2023-03-16T11:07:20.090Z,938.42
2023-03-16T11:08:20.919Z,938.35
2023-03-16T11:09:21.384Z,938.29
2023-03-16T11:10:22.396Z,938.28
2023-03-16T11:11:23.186Z,938.25
2023-03-16T11:12:23.960Z,938.24
2023-03-16T11:13:24.211Z,938.23
2023-03-16T11:14:24.740Z,938.22
2023-03-16T11:15:26.000Z,938.25
2023-03-16T11:16:26.064Z,938.21
2023-03-16T11:17:26.486Z,938.18
2023-03-16T11:18:26.992Z,938.13
2023-03-16T11:19:27.386Z,938.06
2023-03-16T11:20:28.308Z,938.15
2023-03-16T11:21:28.556Z,938.12
2023-03-16T11:22:28.786Z,938.06
2023-03-16T11:23:29.363Z,938.08
2023-03-16T11:24:29.658Z,938.03
2023-03-16T11:25:30.403Z,938.05
2023-03-16T11:26:31.038Z,938.02
2023-03-16T11:27:31.556Z,938.04
2023-03-16T11:28:32.209Z,938.01
2023-03-16T11:29:32.953Z,937.98
2023-03-16T11:30:33.177Z,938
2023-03-16T11:31:33.908Z,937.95
2023-03-16T11:32:34.958Z,937.94
2023-03-16T11:33:35.077Z,937.93
2023-03-16T11:34:35.738Z,937.9
2023-03-16T11:35:38.585Z,937.9
2023-03-16T11:36:37.174Z,937.95
2023-03-16T11:37:38.123Z,937.83
2023-03-16T11:38:38.953Z,937.85
2023-03-16T11:39:39.428Z,937.86
2023-03-16T11:40:39.996Z,937.82
2023-03-16T11:41:40.290Z,937.83
2023-03-16T11:42:40.864Z,937.77
2023-03-16T11:43:41.537Z,937.79
2023-03-16T11:44:42.194Z,937.73
2023-03-16T11:45:43.287Z,937.75
2023-03-16T11:46:44.264Z,937.7
2023-03-16T11:47:44.905Z,937.7
2023-03-16T11:48:45.282Z,937.64
2023-03-16T11:49:45.519Z,937.6
2023-03-16T11:50:45.758Z,937.58
2023-03-16T11:51:45.991Z,937.57
2023-03-16T11:52:46.548Z,937.51
2023-03-16T11:53:47.529Z,937.49
2023-03-16T11:54:48.035Z,937.5
2023-03-16T11:55:48.566Z,937.51
2023-03-16T11:56:48.861Z,937.48
2023-03-16T11:57:51.617Z,937.47
2023-03-16T11:58:49.853Z,937.46
2023-03-16T12:00:00.499Z,937.41
2023-03-16T12:00:51.024Z,937.46
2023-03-16T12:01:59.922Z,937.44
2023-03-16T12:02:52.080Z,937.42
2023-03-16T12:03:52.313Z,937.4
2023-03-16T12:04:53.119Z,937.37
2023-03-16T12:05:53.762Z,937.39
2023-03-16T12:06:54.666Z,937.36
2023-03-16T12:07:54.926Z,937.33
2023-03-16T12:08:55.611Z,937.34
2023-03-16T12:09:55.785Z,937.34
2023-03-16T12:10:56.034Z,937.32
2023-03-16T12:11:56.266Z,937.33
2023-03-16T12:12:56.598Z,937.36
2023-03-16T12:13:56.855Z,937.31
2023-03-16T12:14:57.261Z,937.3
2023-03-16T12:15:58.234Z,937.27
2023-03-16T12:17:01.051Z,937.23
2023-03-16T12:17:59.183Z,937.25
2023-03-16T12:18:59.650Z,937.24
2023-03-16T12:19:59.891Z,937.26
2023-03-16T12:21:00.491Z,937.31
2023-03-16T12:22:00.732Z,937.26
2023-03-16T12:23:01.676Z,937.28
2023-03-16T12:24:02.672Z,937.27
2023-03-16T12:25:03.617Z,937.24
2023-03-16T12:26:03.886Z,937.25
2023-03-16T12:27:04.106Z,937.28
2023-03-16T12:28:05.172Z,937.24
2023-03-16T12:29:06.234Z,937.27
2023-03-16T12:30:06.631Z,937.25
2023-03-16T12:31:06.937Z,937.29
2023-03-16T12:32:07.895Z,937.28
2023-03-16T12:33:08.446Z,937.27
2023-03-16T12:34:09.109Z,937.16
2023-03-16T12:35:10.857Z,937.2
2023-03-16T12:36:10.676Z,937.18
2023-03-16T12:37:11.131Z,937.15
2023-03-16T12:38:12.008Z,937.15
2023-03-16T12:39:12.758Z,937.14